Kate Golding — WDH7802 — position and weather

sailwx.info

Track history (hours):
 
Tides and Currents Weather Stations Pressure Air Temp Water Temp Dewpoint Dewpoint Depression Visibility Wind Speed Wind Dir Waves Ship Positions

Kate Golding

Owner: GOLDING BARGE LINE, INC, VICKSBURG, MS. More information available from US FCC via Universal Licensing System and Coast Guard Vessel Documentation Center.

Last reported at 2018-Jun-06 12:34 UTC. Time now 2018-Jun-18 23:17 UTC.
Position N 28°54' W 095°24'.
Warning: this ship's position is 12 days out of date.

Length 207 m; draft 2.4 m.

Type: . MMSI: 367651810.

Date/timePositionNaut miles runAvg speedWind from/ knotsBaromVisibWave heightAir tempDewpointWater temp
2018-Jun-06 12:34N 28°54' W 095°24'0 4.2
2018-Jun-06 12:30N 28°54' W 095°24'3 3.7
2018-Jun-06 11:34N 28°55' W 095°20'1 4.6
2018-Jun-06 11:21N 28°56' W 095°19'2 4.7
2018-Jun-06 10:55N 28°57' W 095°18'2 4.0
2018-Jun-06 10:26N 28°59' W 095°16'2 4.6
2018-Jun-06 10:00N 29°00' W 095°15'2 4.3
2018-Jun-06 09:31N 29°02' W 095°14'2 4.3
2018-Jun-06 09:01N 29°04' W 095°13'2 4.2
2018-Jun-06 08:30N 29°06' W 095°12'2 4.1
2018-Jun-06 08:00N 29°08' W 095°10'2 4.3
2018-Jun-06 07:30N 29°09' W 095°09'2 4.6
2018-Jun-06 07:00N 29°10' W 095°06'2 4.0
2018-Jun-06 06:30N 29°12' W 095°04'2 4.6
2018-Jun-06 06:01N 29°13' W 095°02'2 4.3
2018-Jun-06 05:30N 29°15' W 095°01'2 4.4
2018-Jun-06 05:01N 29°16' W 094°59'2 4.4
2018-Jun-06 04:30N 29°17' W 094°57'2 4.6
2018-Jun-06 04:00N 29°17' W 094°54'2 4.7
2018-Jun-06 03:30N 29°19' W 094°52'3 5.1
2018-Jun-06 02:58N 29°20' W 094°50'2 4.6
2018-Jun-06 02:30N 29°22' W 094°48'3 5.5
2018-Jun-06 02:00N 29°24' W 094°46'3 5.4
2018-Jun-06 01:30N 29°25' W 094°43'3 5.2
2018-Jun-06 01:00N 29°27' W 094°41'3 5.2
2018-Jun-06 00:30N 29°28' W 094°38'6 5.2
2018-Jun-05 23:26N 29°30' W 094°32'6 4.7
2018-Jun-05 22:12N 29°34' W 094°27'1 4.7
2018-Jun-05 21:59N 29°34' W 094°26'2 4.0
2018-Jun-05 21:26N 29°36' W 094°24'5 4.0
2018-Jun-05 20:06N 29°38' W 094°19'1 4.6
2018-Jun-05 19:59N 29°38' W 094°18'2 4.8
2018-Jun-05 19:30N 29°39' W 094°16'2 4.8
2018-Jun-05 19:01N 29°40' W 094°13'2 4.2
2018-Jun-05 18:31N 29°41' W 094°11'2 4.9
2018-Jun-05 18:00N 29°42' W 094°09'3 5.2
2018-Jun-05 17:30N 29°44' W 094°06'3 5.2
2018-Jun-05 17:00N 29°45' W 094°04'3 5.5
2018-Jun-05 16:30N 29°47' W 094°01'3 5.7
2018-Jun-05 16:01N 29°49' W 093°59'1 2.0
2018-Jun-05 15:30N 29°49' W 093°58'0 0.0
2018-Jun-05 15:00N 29°49' W 093°58'0 0.0
2018-Jun-05 14:30N 29°49' W 093°58'0 0.1
2018-Jun-05 14:00N 29°49' W 093°58'1 1.4
2018-Jun-05 13:30N 29°50' W 093°57'2 4.8
2018-Jun-05 13:01N 29°52' W 093°56'2 4.4
2018-Jun-05 12:30N 29°54' W 093°55'2 4.4
2018-Jun-05 12:01N 29°55' W 093°53'2 4.3
2018-Jun-05 11:30N 29°57' W 093°52'2 3.6
2018-Jun-05 11:00N 29°59' W 093°52'2 4.4
2018-Jun-05 10:30N 29°59' W 093°55'2 4.5
2018-Jun-05 10:01N 29°60' W 093°57'2 3.2
2018-Jun-05 09:30N 30°01' W 093°59'2 4.3
2018-Jun-05 09:00N 30°01' W 094°01'2 3.4
2018-Jun-05 08:30N 30°03' W 094°02'0 0.1
2018-Jun-05 08:00N 30°03' W 094°02'0 0.2
2018-Jun-05 07:31N 30°03' W 094°02'0 0.2
2018-Jun-05 07:00N 30°03' W 094°02'0 0.0
2018-Jun-05 06:30N 30°03' W 094°02'0 0.0
2018-Jun-05 06:00N 30°03' W 094°02'0 0.0
2018-Jun-05 05:30N 30°03' W 094°02'0 0.0
2018-Jun-05 05:01N 30°03' W 094°02'0 0.0
2018-Jun-05 04:30N 30°03' W 094°02'0 0.0
2018-Jun-05 04:00N 30°03' W 094°02'0 0.0
2018-Jun-05 03:30N 30°03' W 094°02'0 0.0
2018-Jun-05 03:01N 30°03' W 094°02'0 0.0
2018-Jun-05 02:30N 30°03' W 094°02'0 0.0
2018-Jun-05 02:00N 30°03' W 094°02'0 0.0
2018-Jun-05 01:30N 30°03' W 094°02'0 0.0
2018-Jun-05 01:00N 30°03' W 094°02'0 0.0
2018-Jun-05 00:30N 30°03' W 094°02'0 0.0
2018-Jun-05 00:00N 30°03' W 094°02'0 0.0
2018-Jun-04 23:30N 30°03' W 094°02'0 0.0
2018-Jun-04 23:00N 30°03' W 094°02'0 0.0
2018-Jun-04 22:30N 30°03' W 094°02'0 0.0
2018-Jun-04 22:00N 30°03' W 094°02'0 0.0
2018-Jun-04 21:30N 30°03' W 094°02'0 0.0
2018-Jun-04 21:00N 30°03' W 094°02'0 0.0
2018-Jun-04 20:30N 30°03' W 094°02'0 0.0
2018-Jun-04 20:00N 30°03' W 094°02'0 0.0
2018-Jun-04 19:30N 30°03' W 094°02'0 0.0
2018-Jun-04 19:00N 30°03' W 094°02'0 0.0
2018-Jun-04 18:30N 30°03' W 094°02'0 0.0
2018-Jun-04 18:00N 30°03' W 094°02'0 0.0
2018-Jun-04 17:30N 30°03' W 094°02'0 0.0
2018-Jun-04 17:00N 30°03' W 094°02'0 0.0
2018-Jun-04 16:30N 30°03' W 094°02'0 0.0
2018-Jun-04 16:00N 30°03' W 094°02'0 0.0
2018-Jun-04 15:30N 30°03' W 094°02'0 0.0
2018-Jun-04 15:00N 30°03' W 094°02'0 0.0
2018-Jun-04 14:30N 30°03' W 094°02'0 0.8
2018-Jun-04 14:00N 30°02' W 094°02'0 0.7
2018-Jun-04 13:30N 30°03' W 094°02'0 0.0
2018-Jun-04 13:00N 30°03' W 094°02'0 0.0
2018-Jun-04 12:30N 30°03' W 094°02'0 0.0
2018-Jun-04 12:00N 30°03' W 094°02'0 0.0
2018-Jun-04 11:30N 30°03' W 094°02'0 0.0
2018-Jun-04 11:00N 30°03' W 094°02'0 0.0
2018-Jun-04 10:30N 30°03' W 094°02'0 0.0
2018-Jun-04 10:00N 30°03' W 094°02'0 0.0
2018-Jun-04 09:30N 30°03' W 094°02'0 0.0
2018-Jun-04 09:00N 30°03' W 094°02'0 0.0
2018-Jun-04 08:30N 30°03' W 094°02'0 0.0
2018-Jun-04 08:00N 30°03' W 094°02'0 0.0
2018-Jun-04 07:30N 30°03' W 094°02'0 0.0
2018-Jun-04 07:00N 30°03' W 094°02'0 0.0
2018-Jun-04 06:30N 30°03' W 094°02'0 0.0
2018-Jun-04 06:00N 30°03' W 094°02'0 0.0
2018-Jun-04 05:30N 30°03' W 094°02'0 0.0
2018-Jun-04 05:00N 30°03' W 094°02'0 0.0
2018-Jun-04 04:30N 30°03' W 094°02'0 0.0
2018-Jun-04 04:00N 30°03' W 094°02'0 0.0
2018-Jun-04 03:30N 30°03' W 094°02'0 0.0
2018-Jun-04 03:00N 30°03' W 094°02'0 0.0
2018-Jun-04 02:30N 30°03' W 094°02'0 0.0
2018-Jun-04 02:00N 30°03' W 094°02'0 0.0
2018-Jun-04 01:30N 30°03' W 094°02'0 0.0
2018-Jun-04 01:00N 30°03' W 094°02'0 0.0
2018-Jun-04 00:30N 30°03' W 094°02'0 0.0
2018-Jun-04 00:01N 30°03' W 094°02'0 0.0
2018-Jun-03 23:31N 30°03' W 094°02'0 0.0
2018-Jun-03 23:00N 30°03' W 094°02'0 0.0
2018-Jun-03 22:30N 30°03' W 094°02'0 0.0
2018-Jun-03 22:00N 30°03' W 094°02'0 0.0
2018-Jun-03 21:30N 30°03' W 094°02'0 0.0
2018-Jun-03 21:00N 30°03' W 094°02'0 0.0
2018-Jun-03 20:30N 30°03' W 094°02'0 0.0
2018-Jun-03 20:00N 30°03' W 094°02'0 0.0
2018-Jun-03 19:31N 30°03' W 094°02'0 0.0
2018-Jun-03 19:00N 30°03' W 094°02'0 0.0
2018-Jun-03 18:30N 30°03' W 094°02'0 0.0
2018-Jun-03 18:00N 30°03' W 094°02'0 0.0
2018-Jun-03 17:30N 30°03' W 094°02'0 0.0
2018-Jun-03 17:00N 30°03' W 094°02'0 0.0
2018-Jun-03 16:30N 30°03' W 094°02'0 0.0
2018-Jun-03 16:00N 30°03' W 094°02'0 0.0
2018-Jun-03 15:30N 30°03' W 094°02'0 0.0
2018-Jun-03 15:00N 30°03' W 094°02'0 0.0
2018-Jun-03 14:30N 30°03' W 094°02'0 0.0
2018-Jun-03 14:01N 30°03' W 094°02'0 0.0
2018-Jun-03 13:31N 30°03' W 094°02'0 0.0
2018-Jun-03 13:00N 30°03' W 094°02'0 0.0
2018-Jun-03 12:30N 30°03' W 094°02'0 0.0
2018-Jun-03 12:00N 30°03' W 094°02'0 0.0
2018-Jun-03 11:30N 30°03' W 094°02'0 0.0
2018-Jun-03 11:00N 30°03' W 094°02'0 0.0
2018-Jun-03 10:30N 30°03' W 094°02'0 0.0
2018-Jun-03 10:00N 30°03' W 094°02'0 0.0
2018-Jun-03 09:30N 30°03' W 094°02'0 0.0
2018-Jun-03 09:00N 30°03' W 094°02'0 0.0
2018-Jun-03 08:30N 30°03' W 094°02'0 0.0
2018-Jun-03 08:01N 30°03' W 094°02'0 0.0
2018-Jun-03 07:31N 30°03' W 094°02'0 0.0
2018-Jun-03 07:00N 30°03' W 094°02'0 0.0
2018-Jun-03 06:30N 30°03' W 094°02'0 0.0
2018-Jun-03 05:57N 30°03' W 094°02'0 0.0
2018-Jun-03 05:30N 30°03' W 094°02'0 0.0
2018-Jun-03 05:00N 30°03' W 094°02'0 0.0
2018-Jun-03 04:30N 30°03' W 094°02'0 0.0
2018-Jun-03 04:00N 30°03' W 094°02'0 0.0
2018-Jun-03 03:30N 30°03' W 094°02'0 0.0
2018-Jun-03 03:00N 30°03' W 094°02'0 0.0
2018-Jun-03 02:31N 30°03' W 094°02'0 0.0
2018-Jun-03 02:00N 30°03' W 094°02'0 0.0
2018-Jun-03 01:30N 30°03' W 094°02'3 5.0
2018-Jun-03 01:00N 30°01' W 094°00'3 6.7
2018-Jun-03 00:31N 29°60' W 093°56'4 7.3
2018-Jun-03 00:01N 29°59' W 093°52'2 4.2
2018-Jun-02 23:31N 29°57' W 093°52'4 7.6
2018-Jun-02 23:00N 29°54' W 093°54'4 7.6
2018-Jun-02 22:30N 29°51' W 093°57'3 6.5
2018-Jun-02 22:01N 29°49' W 093°60'3 6.7
2018-Jun-02 21:30N 29°46' W 094°03'3 6.2
2018-Jun-02 21:00N 29°44' W 094°05'3 5.6
2018-Jun-02 20:30N 29°42' W 094°08'3 5.9
2018-Jun-02 20:00N 29°41' W 094°11'3 6.0
2018-Jun-02 19:30N 29°40' W 094°14'3 6.0
2018-Jun-02 19:01N 29°38' W 094°17'3 5.9
2018-Jun-02 18:30N 29°37' W 094°20'3 5.7
2018-Jun-02 18:00N 29°36' W 094°23'25 2.5
2018-Jun-02 07:54N 29°27' W 094°51'3 7.5
2018-Jun-02 07:31N 29°30' W 094°52'4 7.2
2018-Jun-02 07:00N 29°33' W 094°54'3 6.9
2018-Jun-02 06:31N 29°36' W 094°57'4 7.1
2018-Jun-02 06:01N 29°39' W 094°58'4 6.9
2018-Jun-02 05:30N 29°42' W 095°00'3 6.0
2018-Jun-02 04:59N 29°44' W 095°03'3 5.4
2018-Jun-02 04:29N 29°45' W 095°06'3 6.5
2018-Jun-02 04:00N 29°44' W 095°09'1 0.3
2018-Jun-02 01:05N 29°44' W 095°10'0 0.0
2018-Jun-02 00:48N 29°44' W 095°10'0 0.0
2018-Jun-02 00:24N 29°44' W 095°10'0 0.0
2018-Jun-01 08:55N 29°44' W 095°10'0 0.1
2018-Jun-01 08:30N 29°44' W 095°10'0 0.0
2018-Jun-01 08:01N 29°44' W 095°10'0 0.8
2018-Jun-01 07:29N 29°44' W 095°09'4 0.2
2018-May-31 05:33N 29°46' W 095°05'0 6.6
2018-May-31 05:29N 29°46' W 095°05'2 0.1
2018-May-30 11:41N 29°44' W 095°03'3 5.4
2018-May-30 11:11N 29°46' W 095°06'1 1.1
2018-May-30 10:18N 29°46' W 095°05'2 0.7
2018-May-30 07:05N 29°44' W 095°03'0 0.0
2018-May-30 06:53N 29°44' W 095°03'0 0.0
2018-May-30 06:28N 29°44' W 095°03'0 0.0
2018-May-30 05:58N 29°44' W 095°03'0 0.0
2018-May-30 05:30N 29°44' W 095°03'0 0.0
2018-May-30 05:00N 29°44' W 095°03'0 0.0
2018-May-30 04:30N 29°44' W 095°03'0 0.0
2018-May-30 04:00N 29°44' W 095°03'0 0.0
2018-May-30 03:30N 29°44' W 095°03'0 0.0
2018-May-30 03:00N 29°44' W 095°03'0 0.0
2018-May-30 02:30N 29°44' W 095°03'0 0.1
2018-May-29 22:59N 29°44' W 095°03'3 1.4
2018-May-29 20:35N 29°47' W 095°04'2 0.3
2018-May-29 13:38N 29°46' W 095°06'0 0.0
2018-May-29 13:30N 29°46' W 095°06'0 0.0
2018-May-29 13:00N 29°46' W 095°06'0 0.0
2018-May-29 12:30N 29°46' W 095°06'0 0.0
2018-May-29 11:49N 29°46' W 095°06'0 0.0
2018-May-29 11:30N 29°46' W 095°06'0 0.0
2018-May-29 10:53N 29°46' W 095°06'0 0.0
2018-May-29 10:28N 29°46' W 095°06'0 0.0
2018-May-29 10:00N 29°46' W 095°06'0 0.0
2018-May-29 09:25N 29°46' W 095°06'0 0.0
2018-May-29 08:56N 29°46' W 095°06'0 0.0
2018-May-29 08:27N 29°46' W 095°06'0 0.0
2018-May-29 07:55N 29°46' W 095°06'0 0.0
2018-May-29 07:26N 29°46' W 095°06'0 0.0
2018-May-29 06:54N 29°46' W 095°06'0 0.0
2018-May-29 06:21N 29°46' W 095°06'0 0.0
2018-May-29 05:52N 29°46' W 095°06'0 0.0
2018-May-29 05:25N 29°46' W 095°06'0 0.0
2018-May-29 04:59N 29°46' W 095°06'0 0.0
2018-May-29 04:26N 29°46' W 095°06'0 0.0
2018-May-29 04:00N 29°46' W 095°06'0 0.0
2018-May-29 03:27N 29°46' W 095°06'0 0.0
2018-May-29 02:56N 29°46' W 095°06'0 0.0
2018-May-29 02:25N 29°46' W 095°06'0 0.0
2018-May-29 01:59N 29°46' W 095°06'0 0.0
2018-May-29 01:29N 29°46' W 095°06'0 0.0
2018-May-29 01:00N 29°46' W 095°06'0 0.0
2018-May-29 00:30N 29°46' W 095°06'0 0.0
2018-May-28 23:57N 29°46' W 095°06'0 0.0
2018-May-28 17:58N 29°46' W 095°06'0 0.0
2018-May-28 17:26N 29°46' W 095°06'0 0.0
2018-May-28 15:34N 29°46' W 095°06'0 0.0
2018-May-28 15:30N 29°46' W 095°06'0 0.0
2018-May-28 14:53N 29°46' W 095°06'0 0.0
2018-May-28 14:26N 29°46' W 095°06'1 2.6
2018-May-28 14:00N 29°45' W 095°06'3 6.3
2018-May-28 13:30N 29°44' W 095°09'2 0.1
2018-May-27 21:18N 29°45' W 095°11'2 6.4
2018-May-27 20:59N 29°44' W 095°09'5 6.2
2018-May-27 20:05N 29°47' W 095°04'0 0.1
2018-May-27 19:56N 29°47' W 095°04'1 2.2
2018-May-27 19:30N 29°47' W 095°05'2 4.3
2018-May-27 18:59N 29°45' W 095°06'3 5.3
2018-May-27 18:30N 29°44' W 095°09'  
Track history (hours):
 
Tides and Currents Weather Stations Pressure Air Temp Water Temp Dewpoint Dewpoint Depression Visibility Wind Speed Wind Dir Waves Ship Positions

Kate Golding

Owner: GOLDING BARGE LINE, INC, VICKSBURG, MS. More information available from US FCC via Universal Licensing System and Coast Guard Vessel Documentation Center.

Last reported at 2018-Jun-06 12:34 UTC. Time now 2018-Jun-18 23:17 UTC.
Position N 28°54' W 095°24'.
Warning: this ship's position is 12 days out of date.

Length 207 m; draft 2.4 m.

Type: . MMSI: 367651810.

Date/timePositionNaut miles runAvg speedWind from/ knotsBaromVisibWave heightAir tempDewpointWater temp
2018-Jun-06 12:34N 28°54' W 095°24'0 4.2
2018-Jun-06 12:30N 28°54' W 095°24'3 3.7
2018-Jun-06 11:34N 28°55' W 095°20'1 4.6
2018-Jun-06 11:21N 28°56' W 095°19'2 4.7
2018-Jun-06 10:55N 28°57' W 095°18'2 4.0
2018-Jun-06 10:26N 28°59' W 095°16'2 4.6
2018-Jun-06 10:00N 29°00' W 095°15'2 4.3
2018-Jun-06 09:31N 29°02' W 095°14'2 4.3
2018-Jun-06 09:01N 29°04' W 095°13'2 4.2
2018-Jun-06 08:30N 29°06' W 095°12'2 4.1
2018-Jun-06 08:00N 29°08' W 095°10'2 4.3
2018-Jun-06 07:30N 29°09' W 095°09'2 4.6
2018-Jun-06 07:00N 29°10' W 095°06'2 4.0
2018-Jun-06 06:30N 29°12' W 095°04'2 4.6
2018-Jun-06 06:01N 29°13' W 095°02'2 4.3
2018-Jun-06 05:30N 29°15' W 095°01'2 4.4
2018-Jun-06 05:01N 29°16' W 094°59'2 4.4
2018-Jun-06 04:30N 29°17' W 094°57'2 4.6
2018-Jun-06 04:00N 29°17' W 094°54'2 4.7
2018-Jun-06 03:30N 29°19' W 094°52'3 5.1
2018-Jun-06 02:58N 29°20' W 094°50'2 4.6
2018-Jun-06 02:30N 29°22' W 094°48'3 5.5
2018-Jun-06 02:00N 29°24' W 094°46'3 5.4
2018-Jun-06 01:30N 29°25' W 094°43'3 5.2
2018-Jun-06 01:00N 29°27' W 094°41'3 5.2
2018-Jun-06 00:30N 29°28' W 094°38'6 5.2
2018-Jun-05 23:26N 29°30' W 094°32'6 4.7
2018-Jun-05 22:12N 29°34' W 094°27'1 4.7
2018-Jun-05 21:59N 29°34' W 094°26'2 4.0
2018-Jun-05 21:26N 29°36' W 094°24'5 4.0
2018-Jun-05 20:06N 29°38' W 094°19'1 4.6
2018-Jun-05 19:59N 29°38' W 094°18'2 4.8
2018-Jun-05 19:30N 29°39' W 094°16'2 4.8
2018-Jun-05 19:01N 29°40' W 094°13'2 4.2
2018-Jun-05 18:31N 29°41' W 094°11'2 4.9
2018-Jun-05 18:00N 29°42' W 094°09'3 5.2
2018-Jun-05 17:30N 29°44' W 094°06'3 5.2
2018-Jun-05 17:00N 29°45' W 094°04'3 5.5
2018-Jun-05 16:30N 29°47' W 094°01'3 5.7
2018-Jun-05 16:01N 29°49' W 093°59'1 2.0
2018-Jun-05 15:30N 29°49' W 093°58'0 0.0
2018-Jun-05 15:00N 29°49' W 093°58'0 0.0
2018-Jun-05 14:30N 29°49' W 093°58'0 0.1
2018-Jun-05 14:00N 29°49' W 093°58'1 1.4
2018-Jun-05 13:30N 29°50' W 093°57'2 4.8
2018-Jun-05 13:01N 29°52' W 093°56'2 4.4
2018-Jun-05 12:30N 29°54' W 093°55'2 4.4
2018-Jun-05 12:01N 29°55' W 093°53'2 4.3
2018-Jun-05 11:30N 29°57' W 093°52'2 3.6
2018-Jun-05 11:00N 29°59' W 093°52'2 4.4
2018-Jun-05 10:30N 29°59' W 093°55'2 4.5
2018-Jun-05 10:01N 29°60' W 093°57'2 3.2
2018-Jun-05 09:30N 30°01' W 093°59'2 4.3
2018-Jun-05 09:00N 30°01' W 094°01'2 3.4
2018-Jun-05 08:30N 30°03' W 094°02'0 0.1
2018-Jun-05 08:00N 30°03' W 094°02'0 0.2
2018-Jun-05 07:31N 30°03' W 094°02'0 0.2
2018-Jun-05 07:00N 30°03' W 094°02'0 0.0
2018-Jun-05 06:30N 30°03' W 094°02'0 0.0
2018-Jun-05 06:00N 30°03' W 094°02'0 0.0
2018-Jun-05 05:30N 30°03' W 094°02'0 0.0
2018-Jun-05 05:01N 30°03' W 094°02'0 0.0
2018-Jun-05 04:30N 30°03' W 094°02'0 0.0
2018-Jun-05 04:00N 30°03' W 094°02'0 0.0
2018-Jun-05 03:30N 30°03' W 094°02'0 0.0
2018-Jun-05 03:01N 30°03' W 094°02'0 0.0
2018-Jun-05 02:30N 30°03' W 094°02'0 0.0
2018-Jun-05 02:00N 30°03' W 094°02'0 0.0
2018-Jun-05 01:30N 30°03' W 094°02'0 0.0
2018-Jun-05 01:00N 30°03' W 094°02'0 0.0
2018-Jun-05 00:30N 30°03' W 094°02'0 0.0
2018-Jun-05 00:00N 30°03' W 094°02'0 0.0
2018-Jun-04 23:30N 30°03' W 094°02'0 0.0
2018-Jun-04 23:00N 30°03' W 094°02'0 0.0
2018-Jun-04 22:30N 30°03' W 094°02'0 0.0
2018-Jun-04 22:00N 30°03' W 094°02'0 0.0
2018-Jun-04 21:30N 30°03' W 094°02'0 0.0
2018-Jun-04 21:00N 30°03' W 094°02'0 0.0
2018-Jun-04 20:30N 30°03' W 094°02'0 0.0
2018-Jun-04 20:00N 30°03' W 094°02'0 0.0
2018-Jun-04 19:30N 30°03' W 094°02'0 0.0
2018-Jun-04 19:00N 30°03' W 094°02'0 0.0
2018-Jun-04 18:30N 30°03' W 094°02'0 0.0
2018-Jun-04 18:00N 30°03' W 094°02'0 0.0
2018-Jun-04 17:30N 30°03' W 094°02'0 0.0
2018-Jun-04 17:00N 30°03' W 094°02'0 0.0
2018-Jun-04 16:30N 30°03' W 094°02'0 0.0
2018-Jun-04 16:00N 30°03' W 094°02'0 0.0
2018-Jun-04 15:30N 30°03' W 094°02'0 0.0
2018-Jun-04 15:00N 30°03' W 094°02'0 0.0
2018-Jun-04 14:30N 30°03' W 094°02'0 0.8
2018-Jun-04 14:00N 30°02' W 094°02'0 0.7
2018-Jun-04 13:30N 30°03' W 094°02'0 0.0
2018-Jun-04 13:00N 30°03' W 094°02'0 0.0
2018-Jun-04 12:30N 30°03' W 094°02'0 0.0
2018-Jun-04 12:00N 30°03' W 094°02'0 0.0
2018-Jun-04 11:30N 30°03' W 094°02'0 0.0
2018-Jun-04 11:00N 30°03' W 094°02'0 0.0
2018-Jun-04 10:30N 30°03' W 094°02'0 0.0
2018-Jun-04 10:00N 30°03' W 094°02'0 0.0
2018-Jun-04 09:30N 30°03' W 094°02'0 0.0
2018-Jun-04 09:00N 30°03' W 094°02'0 0.0
2018-Jun-04 08:30N 30°03' W 094°02'0 0.0
2018-Jun-04 08:00N 30°03' W 094°02'0 0.0
2018-Jun-04 07:30N 30°03' W 094°02'0 0.0
2018-Jun-04 07:00N 30°03' W 094°02'0 0.0
2018-Jun-04 06:30N 30°03' W 094°02'0 0.0
2018-Jun-04 06:00N 30°03' W 094°02'0 0.0
2018-Jun-04 05:30N 30°03' W 094°02'0 0.0
2018-Jun-04 05:00N 30°03' W 094°02'0 0.0
2018-Jun-04 04:30N 30°03' W 094°02'0 0.0
2018-Jun-04 04:00N 30°03' W 094°02'0 0.0
2018-Jun-04 03:30N 30°03' W 094°02'0 0.0
2018-Jun-04 03:00N 30°03' W 094°02'0 0.0
2018-Jun-04 02:30N 30°03' W 094°02'0 0.0
2018-Jun-04 02:00N 30°03' W 094°02'0 0.0
2018-Jun-04 01:30N 30°03' W 094°02'0 0.0
2018-Jun-04 01:00N 30°03' W 094°02'0 0.0
2018-Jun-04 00:30N 30°03' W 094°02'0 0.0
2018-Jun-04 00:01N 30°03' W 094°02'0 0.0
2018-Jun-03 23:31N 30°03' W 094°02'0 0.0
2018-Jun-03 23:00N 30°03' W 094°02'0 0.0
2018-Jun-03 22:30N 30°03' W 094°02'0 0.0
2018-Jun-03 22:00N 30°03' W 094°02'0 0.0
2018-Jun-03 21:30N 30°03' W 094°02'0 0.0
2018-Jun-03 21:00N 30°03' W 094°02'0 0.0
2018-Jun-03 20:30N 30°03' W 094°02'0 0.0
2018-Jun-03 20:00N 30°03' W 094°02'0 0.0
2018-Jun-03 19:31N 30°03' W 094°02'0 0.0
2018-Jun-03 19:00N 30°03' W 094°02'0 0.0
2018-Jun-03 18:30N 30°03' W 094°02'0 0.0
2018-Jun-03 18:00N 30°03' W 094°02'0 0.0
2018-Jun-03 17:30N 30°03' W 094°02'0 0.0
2018-Jun-03 17:00N 30°03' W 094°02'0 0.0
2018-Jun-03 16:30N 30°03' W 094°02'0 0.0
2018-Jun-03 16:00N 30°03' W 094°02'0 0.0
2018-Jun-03 15:30N 30°03' W 094°02'0 0.0
2018-Jun-03 15:00N 30°03' W 094°02'0 0.0
2018-Jun-03 14:30N 30°03' W 094°02'0 0.0
2018-Jun-03 14:01N 30°03' W 094°02'0 0.0
2018-Jun-03 13:31N 30°03' W 094°02'0 0.0
2018-Jun-03 13:00N 30°03' W 094°02'0 0.0
2018-Jun-03 12:30N 30°03' W 094°02'0 0.0
2018-Jun-03 12:00N 30°03' W 094°02'0 0.0
2018-Jun-03 11:30N 30°03' W 094°02'0 0.0
2018-Jun-03 11:00N 30°03' W 094°02'0 0.0
2018-Jun-03 10:30N 30°03' W 094°02'0 0.0
2018-Jun-03 10:00N 30°03' W 094°02'0 0.0
2018-Jun-03 09:30N 30°03' W 094°02'0 0.0
2018-Jun-03 09:00N 30°03' W 094°02'0 0.0
2018-Jun-03 08:30N 30°03' W 094°02'0 0.0
2018-Jun-03 08:01N 30°03' W 094°02'0 0.0
2018-Jun-03 07:31N 30°03' W 094°02'0 0.0
2018-Jun-03 07:00N 30°03' W 094°02'0 0.0
2018-Jun-03 06:30N 30°03' W 094°02'0 0.0
2018-Jun-03 05:57N 30°03' W 094°02'0 0.0
2018-Jun-03 05:30N 30°03' W 094°02'0 0.0
2018-Jun-03 05:00N 30°03' W 094°02'0 0.0
2018-Jun-03 04:30N 30°03' W 094°02'0 0.0
2018-Jun-03 04:00N 30°03' W 094°02'0 0.0
2018-Jun-03 03:30N 30°03' W 094°02'0 0.0
2018-Jun-03 03:00N 30°03' W 094°02'0 0.0
2018-Jun-03 02:31N 30°03' W 094°02'0 0.0
2018-Jun-03 02:00N 30°03' W 094°02'0 0.0
2018-Jun-03 01:30N 30°03' W 094°02'3 5.0
2018-Jun-03 01:00N 30°01' W 094°00'3 6.7
2018-Jun-03 00:31N 29°60' W 093°56'4 7.3
2018-Jun-03 00:01N 29°59' W 093°52'2 4.2
2018-Jun-02 23:31N 29°57' W 093°52'4 7.6
2018-Jun-02 23:00N 29°54' W 093°54'4 7.6
2018-Jun-02 22:30N 29°51' W 093°57'3 6.5
2018-Jun-02 22:01N 29°49' W 093°60'3 6.7
2018-Jun-02 21:30N 29°46' W 094°03'3 6.2
2018-Jun-02 21:00N 29°44' W 094°05'3 5.6
2018-Jun-02 20:30N 29°42' W 094°08'3 5.9
2018-Jun-02 20:00N 29°41' W 094°11'3 6.0
2018-Jun-02 19:30N 29°40' W 094°14'3 6.0
2018-Jun-02 19:01N 29°38' W 094°17'3 5.9
2018-Jun-02 18:30N 29°37' W 094°20'3 5.7
2018-Jun-02 18:00N 29°36' W 094°23'25 2.5
2018-Jun-02 07:54N 29°27' W 094°51'3 7.5
2018-Jun-02 07:31N 29°30' W 094°52'4 7.2
2018-Jun-02 07:00N 29°33' W 094°54'3 6.9
2018-Jun-02 06:31N 29°36' W 094°57'4 7.1
2018-Jun-02 06:01N 29°39' W 094°58'4 6.9
2018-Jun-02 05:30N 29°42' W 095°00'3 6.0
2018-Jun-02 04:59N 29°44' W 095°03'3 5.4
2018-Jun-02 04:29N 29°45' W 095°06'3 6.5
2018-Jun-02 04:00N 29°44' W 095°09'1 0.3
2018-Jun-02 01:05N 29°44' W 095°10'0 0.0
2018-Jun-02 00:48N 29°44' W 095°10'0 0.0
2018-Jun-02 00:24N 29°44' W 095°10'0 0.0
2018-Jun-01 08:55N 29°44' W 095°10'0 0.1
2018-Jun-01 08:30N 29°44' W 095°10'0 0.0
2018-Jun-01 08:01N 29°44' W 095°10'0 0.8
2018-Jun-01 07:29N 29°44' W 095°09'4 0.2
2018-May-31 05:33N 29°46' W 095°05'0 6.6
2018-May-31 05:29N 29°46' W 095°05'2 0.1
2018-May-30 11:41N 29°44' W 095°03'3 5.4
2018-May-30 11:11N 29°46' W 095°06'1 1.1
2018-May-30 10:18N 29°46' W 095°05'2 0.7
2018-May-30 07:05N 29°44' W 095°03'0 0.0
2018-May-30 06:53N 29°44' W 095°03'0 0.0
2018-May-30 06:28N 29°44' W 095°03'0 0.0
2018-May-30 05:58N 29°44' W 095°03'0 0.0
2018-May-30 05:30N 29°44' W 095°03'0 0.0
2018-May-30 05:00N 29°44' W 095°03'0 0.0
2018-May-30 04:30N 29°44' W 095°03'0 0.0
2018-May-30 04:00N 29°44' W 095°03'0 0.0
2018-May-30 03:30N 29°44' W 095°03'0 0.0
2018-May-30 03:00N 29°44' W 095°03'0 0.0
2018-May-30 02:30N 29°44' W 095°03'0 0.1
2018-May-29 22:59N 29°44' W 095°03'3 1.4
2018-May-29 20:35N 29°47' W 095°04'2 0.3
2018-May-29 13:38N 29°46' W 095°06'0 0.0
2018-May-29 13:30N 29°46' W 095°06'0 0.0
2018-May-29 13:00N 29°46' W 095°06'0 0.0
2018-May-29 12:30N 29°46' W 095°06'0 0.0
2018-May-29 11:49N 29°46' W 095°06'0 0.0
2018-May-29 11:30N 29°46' W 095°06'0 0.0
2018-May-29 10:53N 29°46' W 095°06'0 0.0
2018-May-29 10:28N 29°46' W 095°06'0 0.0
2018-May-29 10:00N 29°46' W 095°06'0 0.0
2018-May-29 09:25N 29°46' W 095°06'0 0.0
2018-May-29 08:56N 29°46' W 095°06'0 0.0
2018-May-29 08:27N 29°46' W 095°06'0 0.0
2018-May-29 07:55N 29°46' W 095°06'0 0.0
2018-May-29 07:26N 29°46' W 095°06'0 0.0
2018-May-29 06:54N 29°46' W 095°06'0 0.0
2018-May-29 06:21N 29°46' W 095°06'0 0.0
2018-May-29 05:52N 29°46' W 095°06'0 0.0
2018-May-29 05:25N 29°46' W 095°06'0 0.0
2018-May-29 04:59N 29°46' W 095°06'0 0.0
2018-May-29 04:26N 29°46' W 095°06'0 0.0
2018-May-29 04:00N 29°46' W 095°06'0 0.0
2018-May-29 03:27N 29°46' W 095°06'0 0.0
2018-May-29 02:56N 29°46' W 095°06'0 0.0
2018-May-29 02:25N 29°46' W 095°06'0 0.0
2018-May-29 01:59N 29°46' W 095°06'0 0.0
2018-May-29 01:29N 29°46' W 095°06'0 0.0
2018-May-29 01:00N 29°46' W 095°06'0 0.0
2018-May-29 00:30N 29°46' W 095°06'0 0.0
2018-May-28 23:57N 29°46' W 095°06'0 0.0
2018-May-28 17:58N 29°46' W 095°06'0 0.0
2018-May-28 17:26N 29°46' W 095°06'0 0.0
2018-May-28 15:34N 29°46' W 095°06'0 0.0
2018-May-28 15:30N 29°46' W 095°06'0 0.0
2018-May-28 14:53N 29°46' W 095°06'0 0.0
2018-May-28 14:26N 29°46' W 095°06'1 2.6
2018-May-28 14:00N 29°45' W 095°06'3 6.3
2018-May-28 13:30N 29°44' W 095°09'2 0.1
2018-May-27 21:18N 29°45' W 095°11'2 6.4
2018-May-27 20:59N 29°44' W 095°09'5 6.2
2018-May-27 20:05N 29°47' W 095°04'0 0.1
2018-May-27 19:56N 29°47' W 095°04'1 2.2
2018-May-27 19:30N 29°47' W 095°05'2 4.3
2018-May-27 18:59N 29°45' W 095°06'3 5.3
2018-May-27 18:30N 29°44' W 095°09'  

Dump ship's entire track history